Flight Track Log - Related Links

Times and Time Zones

All times are in EDT time to prevent confusion due to time zone crossing. See the SVA1520 flight status page for this flight to view local times or setup timezone preferences in your user account.

Time Position Orientation Groundspeed Altitude Reporting Facility
EDT Latitude Longitude Course Direction KTS MPH feet Rate Location/Type
Wed 03:15:00 AM 28.0902 36.8507 143° Southeast  Level Estimated
Wed 03:16:00 AM 28.0213 36.9085 143° Southeast  Level Estimated
Wed 03:17:00 AM 27.9524 36.9662 144° Southeast  Level Estimated
Wed 03:18:00 AM 27.8834 37.0238 144° Southeast  Level Estimated
Wed 03:19:00 AM 27.8145 37.0814 144° Southeast  Level Estimated
Wed 03:20:00 AM 27.7455 37.1389 144° Southeast  Level Estimated
Wed 03:21:00 AM 27.6765 37.1963 144° Southeast  Level Estimated
Wed 03:22:00 AM 27.6075 37.2536 144° Southeast  Level Estimated
Wed 03:23:00 AM 27.5385 37.3109 144° Southeast  Level Estimated
Wed 03:24:00 AM 27.4694 37.3681 144° Southeast  Level Estimated
Wed 03:25:00 AM 27.4003 37.4252 144° Southeast  Level Estimated
Wed 03:26:00 AM 27.3312 37.4822 144° Southeast  Level Estimated
Wed 03:27:00 AM 27.2621 37.5392 144° Southeast  Level Estimated
Wed 03:28:00 AM 27.1929 37.5961 144° Southeast  Level Estimated
Wed 03:29:00 AM 27.1237 37.6530 144° Southeast  Level Estimated
Wed 03:30:00 AM 27.0545 37.7097 144° Southeast  Level Estimated
Wed 03:31:00 AM 26.9853 37.7664 144° Southeast  Level Estimated
Wed 03:32:00 AM 26.9160 37.8231 144° Southeast  Level Estimated
Wed 03:33:00 AM 26.8468 37.8796 144° Southeast  Level Estimated
Wed 03:34:00 AM 26.7775 37.9361 144° Southeast  Level Estimated
Wed 03:35:00 AM 26.7082 37.9925 144° Southeast  Level Estimated
Wed 03:36:00 AM 26.6388 38.0489 144° Southeast  Level Estimated
Wed 03:37:00 AM 26.5694 38.1051 144° Southeast  Level Estimated
Wed 03:38:00 AM 26.5001 38.1614 144° Southeast  Level Estimated
Wed 03:39:00 AM 26.4307 38.2175 144° Southeast  Level Estimated
Wed 03:40:00 AM 26.3612 38.2736 144° Southeast  Level Estimated
Wed 03:41:00 AM 26.2918 38.3296 144° Southeast  Level Estimated
Wed 03:42:00 AM 26.2223 38.3855 144° Southeast  Level Estimated
Wed 03:43:00 AM 26.1528 38.4414 144° Southeast  Level Estimated
Wed 03:44:00 AM 26.0833 38.4972 144° Southeast  Level Estimated
Wed 03:45:00 AM 26.0138 38.5530 144° Southeast  Level Estimated
Wed 03:46:00 AM 25.9442 38.6087 144° Southeast  Level Estimated
Wed 03:47:00 AM 25.8746 38.6643 144° Southeast  Level Estimated
Wed 03:48:00 AM 25.8050 38.7198 144° Southeast  Level Estimated
Wed 03:49:00 AM 25.7354 38.7753 144° Southeast  Level Estimated
Wed 03:50:00 AM 25.6658 38.8307 144° Southeast  Level Estimated
Wed 03:51:00 AM 25.5961 38.8861 144° Southeast  Level Estimated
Wed 03:52:00 AM 25.5264 38.9413 144° Southeast  Level Estimated
Wed 03:53:00 AM 25.4567 38.9966 144° Southeast  Level Estimated
Wed 03:54:00 AM 25.3870 39.0517 144° Southeast  Level Estimated
Wed 03:55:00 AM 25.3172 39.1068 144° Southeast  Level Estimated
Wed 03:56:00 AM 25.2475 39.1618 144° Southeast  Level Estimated
Wed 03:57:00 AM 25.1777 39.2168 145° Southeast  Level Estimated
Wed 03:58:00 AM 25.1079 39.2717 145° Southeast  Level Estimated
Wed 03:59:00 AM 25.0380 39.3266 145° Southeast  Level Estimated
Wed 04:00:00 AM 24.9682 39.3814 145° Southeast  Level Estimated
Wed 04:01:00 AM 24.8983 39.4361 145° Southeast  Level Estimated
Wed 04:02:00 AM 24.8284 39.4907 145° Southeast  Level Estimated
Wed 04:03:00 AM 24.7585 39.5453 145° Southeast  Level Estimated
Wed 04:04:00 AM 24.6886 39.5999 145° Southeast  Level Estimated
Wed 04:05:00 AM 24.6187 39.6543 145° Southeast  Level Estimated
Wed 04:06:00 AM 24.5534 39.7051 145° Southeast  Level Estimated
Wed 04:07:00 AM 24.5534 39.7051 North  Level Estimated
Wed 04:08:00 AM 24.5534 39.7051 North  Level Estimated
Wed 04:09:00 AM 24.5534 39.7051 North  Level Estimated
Wed 04:10:00 AM 24.5534 39.7051 North  Level Estimated
Wed 04:11:00 AM 24.5534 39.7051 North  Level Estimated
Wed 04:12:00 AM 24.5534 39.7051 North  Level Estimated

Login

Don't have an account? Register now (free) for customized features, flight alerts, and more!